Time;durP1;ratioP1;P1;durP2;ratioP2;P2;SDS_P1;SDS_P2;PMS_P1;PMS_P2;Temp;Humidity;BMP_temperature;BMP_pressure;BME280_temperature;BME280_humidity;BME280_pressure;Samples;Min_cycle;Max_cycle;Signal;HPM_P1;HPM_P2
2023/07/24 00:02:08;;;;;;;6.40;4.50;;;;;;;;;;5001847;28;20050;-75
2023/07/24 00:04:33;;;;;;;9.15;4.80;;;;;;;;;;5001661;28;20038;-74
2023/07/24 00:07:02;;;;;;;8.73;4.43;;;;;;;;;;5001688;28;20053;-74
2023/07/24 00:09:28;;;;;;;8.05;4.40;;;;;;;;;;4998888;28;20053;-74
2023/07/24 00:11:54;;;;;;;7.60;4.60;;;;;;;;;;5000474;28;20057;-74
2023/07/24 00:14:19;;;;;;;7.03;4.45;;;;;;;;;;5003311;28;20084;-74
2023/07/24 00:16:44;;;;;;;8.40;4.70;;;;;;;;;;5011961;28;20046;-75
2023/07/24 00:19:10;;;;;;;7.68;4.55;;;;;;;;;;4999153;28;20052;-75
2023/07/24 00:21:35;;;;;;;8.85;4.93;;;;;;;;;;5011223;28;20575;-75
2023/07/24 00:24:01;;;;;;;7.28;4.40;;;;;;;;;;4998860;28;20054;-75
2023/07/24 00:26:26;;;;;;;8.55;4.30;;;;;;;;;;5000927;28;20465;-75
2023/07/24 00:28:51;;;;;;;7.68;4.30;;;;;;;;;;4998975;28;20046;-75
2023/07/24 00:31:17;;;;;;;5.45;3.90;;;;;;;;;;4998469;28;20050;-73
2023/07/24 00:33:43;;;;;;;7.78;4.40;;;;;;;;;;4998512;28;20038;-74
2023/07/24 00:36:10;;;;;;;7.47;4.63;;;;;;;;;;4999589;28;20045;-74
2023/07/24 00:38:36;;;;;;;9.90;4.35;;;;;;;;;;4999373;28;20568;-74
2023/07/24 00:41:01;;;;;;;9.82;4.03;;;;;;;;;;4999248;28;20125;-74
2023/07/24 00:43:27;;;;;;;9.93;4.03;;;;;;;;;;5002228;28;20458;-76
2023/07/24 00:45:55;;;;;;;6.25;4.03;;;;;;;;;;5003445;28;20075;-74
2023/07/24 00:48:21;;;;;;;6.68;4.35;;;;;;;;;;5000663;28;20042;-73
2023/07/24 00:50:48;;;;;;;8.27;4.32;;;;;;;;;;5000567;28;20049;-74
2023/07/24 00:53:14;;;;;;;8.55;4.38;;;;;;;;;;4998218;28;20505;-74
2023/07/24 00:55:41;;;;;;;6.65;4.03;;;;;;;;;;4999478;28;20792;-73
2023/07/24 00:58:06;;;;;;;7.32;4.18;;;;;;;;;;4998331;28;20149;-73
2023/07/24 01:00:32;;;;;;;11.57;4.30;;;;;;;;;;4999245;28;20037;-73
2023/07/24 01:02:59;;;;;;;8.77;4.30;;;;;;;;;;4998928;28;20046;-73
2023/07/24 01:05:25;;;;;;;6.30;4.47;;;;;;;;;;5000932;28;20038;-73
2023/07/24 01:07:52;;;;;;;7.65;3.78;;;;;;;;;;4998863;28;20508;-72
2023/07/24 01:10:17;;;;;;;7.45;4.50;;;;;;;;;;5002973;28;20128;-73
2023/07/24 01:13:07;;;;;;;8.55;4.13;;;;;;;;;;4999071;28;20503;-72
2023/07/24 01:15:39;;;;;;;8.10;4.38;;;;;;;;;;5001939;28;20042;-72
2023/07/24 01:18:13;;;;;;;6.70;4.13;;;;;;;;;;4997712;28;20042;-73
2023/07/24 01:20:50;;;;;;;6.35;4.18;;;;;;;;;;5000399;28;20044;-73
2023/07/24 01:23:29;;;;;;;7.15;4.47;;;;;;;;;;5015377;28;20080;-72
2023/07/24 01:25:59;;;;;;;6.07;4.40;;;;;;;;;;4998726;28;20132;-72
2023/07/24 01:28:26;;;;;;;10.60;4.78;;;;;;;;;;5000097;28;20057;-74
2023/07/24 01:30:52;;;;;;;7.45;4.43;;;;;;;;;;5003992;28;20049;-74
2023/07/24 01:33:19;;;;;;;4.72;3.88;;;;;;;;;;5002827;28;20121;-74
2023/07/24 01:35:50;;;;;;;7.53;4.65;;;;;;;;;;4996723;28;20041;-74
2023/07/24 01:38:16;;;;;;;10.07;4.65;;;;;;;;;;5002535;28;20046;-74
2023/07/24 01:40:42;;;;;;;7.97;4.65;;;;;;;;;;5004101;28;20042;-72
2023/07/24 01:43:09;;;;;;;9.15;4.20;;;;;;;;;;5002478;28;20197;-72
2023/07/24 01:45:35;;;;;;;8.13;4.57;;;;;;;;;;5007512;28;20392;-72
2023/07/24 01:48:03;;;;;;;9.82;4.85;;;;;;;;;;5000748;28;20185;-72
2023/07/24 01:50:29;;;;;;;8.98;4.30;;;;;;;;;;5003752;28;20045;-72
2023/07/24 01:52:54;;;;;;;7.45;4.75;;;;;;;;;;5001652;28;20045;-72
2023/07/24 01:55:19;;;;;;;11.70;4.40;;;;;;;;;;5003848;28;20076;-72
2023/07/24 01:57:45;;;;;;;6.05;4.43;;;;;;;;;;5002498;28;20411;-72
2023/07/24 02:00:11;;;;;;;7.40;4.55;;;;;;;;;;5001249;28;20041;-72
2023/07/24 02:02:36;;;;;;;11.05;5.00;;;;;;;;;;5005910;28;20100;-74
2023/07/24 02:05:03;;;;;;;7.65;5.00;;;;;;;;;;5002136;28;20137;-74
2023/07/24 02:07:28;;;;;;;10.73;4.95;;;;;;;;;;5003495;28;20757;-74
2023/07/24 02:09:54;;;;;;;10.90;4.90;;;;;;;;;;5006376;28;20057;-74
2023/07/24 02:12:20;;;;;;;8.70;5.03;;;;;;;;;;5002105;28;20061;-74
2023/07/24 02:14:49;;;;;;;11.20;5.53;;;;;;;;;;5001559;28;20045;-74
2023/07/24 02:17:15;;;;;;;8.25;4.50;;;;;;;;;;5001917;28;20128;-74
2023/07/24 02:19:40;;;;;;;12.93;5.20;;;;;;;;;;5003759;28;20133;-73
2023/07/24 02:22:06;;;;;;;6.28;4.10;;;;;;;;;;5001729;28;20108;-73
2023/07/24 02:24:34;;;;;;;7.15;4.57;;;;;;;;;;5012568;28;20119;-73
2023/07/24 02:27:00;;;;;;;8.40;4.75;;;;;;;;;;5007076;28;20518;-72
2023/07/24 02:29:26;;;;;;;7.60;4.88;;;;;;;;;;5003070;28;20048;-72
2023/07/24 02:31:53;;;;;;;7.13;4.45;;;;;;;;;;5005213;28;20073;-73
2023/07/24 02:34:19;;;;;;;7.80;4.55;;;;;;;;;;5005617;28;21066;-73
2023/07/24 02:36:44;;;;;;;7.85;4.85;;;;;;;;;;5003171;28;20033;-74
2023/07/24 02:39:10;;;;;;;7.47;4.25;;;;;;;;;;5001342;28;20048;-74
2023/07/24 02:41:35;;;;;;;7.45;4.40;;;;;;;;;;5002813;28;20041;-73
2023/07/24 02:44:02;;;;;;;9.18;4.93;;;;;;;;;;5000673;28;20050;-74
2023/07/24 02:46:29;;;;;;;6.78;4.47;;;;;;;;;;5006701;28;20464;-74
2023/07/24 02:48:54;;;;;;;7.18;4.72;;;;;;;;;;5000776;28;20054;-73
2023/07/24 02:51:20;;;;;;;12.18;4.80;;;;;;;;;;5002546;28;20045;-74
2023/07/24 02:53:45;;;;;;;7.75;4.47;;;;;;;;;;5002130;28;20044;-76
2023/07/24 02:56:10;;;;;;;6.53;4.40;;;;;;;;;;5008164;28;20482;-73
2023/07/24 02:58:36;;;;;;;8.38;4.68;;;;;;;;;;5006646;28;20038;-74
2023/07/24 03:01:06;;;;;;;8.38;4.57;;;;;;;;;;5000846;28;21055;-73
2023/07/24 03:03:33;;;;;;;8.15;4.88;;;;;;;;;;5000990;28;20045;-73
2023/07/24 03:05:58;;;;;;;10.55;4.75;;;;;;;;;;5007484;28;20601;-73
2023/07/24 03:08:23;;;;;;;6.50;4.13;;;;;;;;;;4999653;28;20141;-73
2023/07/24 03:10:49;;;;;;;7.38;4.57;;;;;;;;;;5002114;28;20077;-73
2023/07/24 03:13:14;;;;;;;11.90;4.50;;;;;;;;;;5001909;28;20595;-73
2023/07/24 03:15:40;;;;;;;7.35;4.18;;;;;;;;;;5002443;28;20041;-73
2023/07/24 03:18:05;;;;;;;8.88;5.15;;;;;;;;;;5004405;28;20055;-74
2023/07/24 03:20:31;;;;;;;7.22;4.55;;;;;;;;;;5001843;28;20038;-73
2023/07/24 03:22:56;;;;;;;8.82;4.75;;;;;;;;;;5005040;28;20048;-74
2023/07/24 03:25:22;;;;;;;8.30;4.88;;;;;;;;;;5000974;28;20046;-72
2023/07/24 03:27:48;;;;;;;10.05;5.13;;;;;;;;;;5000936;28;20499;-72
2023/07/24 03:30:13;;;;;;;9.65;4.78;;;;;;;;;;4999734;28;20050;-71
2023/07/24 03:32:39;;;;;;;9.85;4.68;;;;;;;;;;5003555;28;20056;-71
2023/07/24 03:35:05;;;;;;;6.07;4.18;;;;;;;;;;5008286;28;20037;-71
2023/07/24 03:37:31;;;;;;;8.35;4.72;;;;;;;;;;5000564;28;20045;-70
2023/07/24 03:39:57;;;;;;;6.05;4.15;;;;;;;;;;5003899;28;20065;-73
2023/07/24 03:42:27;;;;;;;10.57;5.05;;;;;;;;;;5000223;28;20038;-71
2023/07/24 03:44:53;;;;;;;11.60;5.50;;;;;;;;;;5000391;28;20045;-71
2023/07/24 03:47:19;;;;;;;9.38;4.97;;;;;;;;;;5001389;28;20045;-71
2023/07/24 03:49:44;;;;;;;8.00;4.85;;;;;;;;;;4999614;28;20415;-70
2023/07/24 03:52:10;;;;;;;8.10;4.72;;;;;;;;;;4999168;28;20050;-71
2023/07/24 03:54:35;;;;;;;8.85;5.13;;;;;;;;;;5001733;28;20056;-71
2023/07/24 03:57:00;;;;;;;9.93;5.57;;;;;;;;;;5003823;28;20046;-71
2023/07/24 03:59:26;;;;;;;10.18;5.45;;;;;;;;;;4999589;28;20045;-71
2023/07/24 04:01:51;;;;;;;12.02;5.90;;;;;;;;;;4999384;28;20499;-73
2023/07/24 04:04:17;;;;;;;9.60;5.00;;;;;;;;;;5011445;28;20088;-73
2023/07/24 04:06:42;;;;;;;8.20;5.53;;;;;;;;;;5008369;28;20047;-75
2023/07/24 04:09:07;;;;;;;9.80;5.68;;;;;;;;;;5006799;28;20041;-74
2023/07/24 04:11:33;;;;;;;8.00;5.43;;;;;;;;;;5001037;28;20060;-74
2023/07/24 04:13:58;;;;;;;11.07;5.80;;;;;;;;;;4999034;28;20052;-73
2023/07/24 04:16:24;;;;;;;11.13;5.45;;;;;;;;;;5007258;28;20058;-73
2023/07/24 04:18:49;;;;;;;11.65;5.57;;;;;;;;;;5003518;28;20053;-73
2023/07/24 04:21:15;;;;;;;10.75;5.75;;;;;;;;;;5009511;28;20053;-72
2023/07/24 04:23:40;;;;;;;14.05;5.90;;;;;;;;;;5004452;28;20049;-72
2023/07/24 04:26:06;;;;;;;9.88;5.60;;;;;;;;;;5000645;28;20041;-72
2023/07/24 04:28:31;;;;;;;12.10;5.90;;;;;;;;;;5004148;28;20033;-72
2023/07/24 04:31:01;;;;;;;14.13;6.25;;;;;;;;;;5000581;28;20045;-72
2023/07/24 04:33:27;;;;;;;8.60;5.47;;;;;;;;;;4999374;28;20117;-72
2023/07/24 04:35:54;;;;;;;11.18;5.25;;;;;;;;;;4999062;28;20276;-72
2023/07/24 04:38:19;;;;;;;8.52;5.25;;;;;;;;;;5007379;28;20494;-72
2023/07/24 04:40:45;;;;;;;11.57;5.70;;;;;;;;;;5020654;28;20079;-73
2023/07/24 04:43:11;;;;;;;7.50;5.03;;;;;;;;;;5008343;28;20414;-73
2023/07/24 04:45:36;;;;;;;11.63;5.30;;;;;;;;;;5007227;28;20042;-73
2023/07/24 04:48:01;;;;;;;7.18;5.07;;;;;;;;;;5001441;28;20086;-74
2023/07/24 04:50:27;;;;;;;11.00;5.95;;;;;;;;;;4998518;28;20466;-75
2023/07/24 04:52:52;;;;;;;8.45;5.30;;;;;;;;;;4998114;28;20037;-74
2023/07/24 04:55:18;;;;;;;7.70;4.45;;;;;;;;;;4997697;28;20048;-74
2023/07/24 04:57:43;;;;;;;11.27;5.60;;;;;;;;;;5012062;28;20310;-75
2023/07/24 05:00:09;;;;;;;9.27;6.05;;;;;;;;;;5002536;28;20045;-76
2023/07/24 05:02:35;;;;;;;9.65;5.45;;;;;;;;;;5011177;28;20053;-75
2023/07/24 05:05:00;;;;;;;9.45;5.72;;;;;;;;;;5008231;28;20116;-75
2023/07/24 05:07:26;;;;;;;8.57;5.45;;;;;;;;;;5004564;28;20050;-75
2023/07/24 05:09:51;;;;;;;11.45;5.63;;;;;;;;;;5010913;28;20981;-75
2023/07/24 05:12:17;;;;;;;11.20;5.95;;;;;;;;;;5006978;28;20073;-75
2023/07/24 05:14:42;;;;;;;10.50;5.65;;;;;;;;;;5006330;28;20073;-76
2023/07/24 05:17:08;;;;;;;8.65;5.30;;;;;;;;;;5010425;28;20098;-75
2023/07/24 05:19:33;;;;;;;9.35;5.30;;;;;;;;;;4992840;28;20065;-73
2023/07/24 05:21:59;;;;;;;13.07;5.72;;;;;;;;;;5009456;28;20052;-74
2023/07/24 05:24:24;;;;;;;8.77;5.55;;;;;;;;;;5011412;28;20048;-75
2023/07/24 05:26:50;;;;;;;9.07;5.65;;;;;;;;;;5008646;28;20049;-74
2023/07/24 05:29:15;;;;;;;9.75;5.78;;;;;;;;;;5007491;28;20038;-74
2023/07/24 05:31:41;;;;;;;8.85;5.40;;;;;;;;;;4992361;28;20095;-74
2023/07/24 05:34:06;;;;;;;9.48;6.03;;;;;;;;;;5008405;28;20045;-74
2023/07/24 05:36:32;;;;;;;9.05;5.68;;;;;;;;;;5010549;28;20037;-75
2023/07/24 05:38:57;;;;;;;9.07;5.10;;;;;;;;;;5009332;28;20064;-74
2023/07/24 05:41:23;;;;;;;10.38;4.72;;;;;;;;;;5008422;28;20038;-74
2023/07/24 05:43:48;;;;;;;7.43;5.00;;;;;;;;;;5002118;28;20056;-74
2023/07/24 05:46:14;;;;;;;8.70;5.38;;;;;;;;;;5003717;28;20096;-74
2023/07/24 05:48:39;;;;;;;7.53;5.45;;;;;;;;;;5001988;28;20121;-74
2023/07/24 05:51:04;;;;;;;7.90;4.60;;;;;;;;;;5002157;28;20068;-74
2023/07/24 05:53:30;;;;;;;12.18;5.10;;;;;;;;;;5001365;28;20116;-74
2023/07/24 05:55:57;;;;;;;9.50;5.70;;;;;;;;;;5001479;28;20123;-74
2023/07/24 05:58:23;;;;;;;7.13;4.93;;;;;;;;;;5002120;28;20045;-74
2023/07/24 06:00:49;;;;;;;6.72;4.63;;;;;;;;;;5002319;28;20049;-74
2023/07/24 06:03:14;;;;;;;7.15;5.18;;;;;;;;;;5008293;28;20045;-73
2023/07/24 06:05:39;;;;;;;7.65;4.65;;;;;;;;;;5007277;28;20098;-75
2023/07/24 06:08:05;;;;;;;7.65;5.15;;;;;;;;;;5003541;28;20102;-77
2023/07/24 06:10:30;;;;;;;7.65;5.10;;;;;;;;;;5003359;28;20101;-75
2023/07/24 06:12:56;;;;;;;8.88;5.20;;;;;;;;;;5004463;28;20610;-73
2023/07/24 06:15:21;;;;;;;8.55;5.10;;;;;;;;;;5007435;28;20068;-75
2023/07/24 06:17:47;;;;;;;7.10;5.13;;;;;;;;;;5002431;28;20081;-76
2023/07/24 06:20:12;;;;;;;7.45;4.78;;;;;;;;;;5009343;28;20132;-73
2023/07/24 06:22:37;;;;;;;9.68;5.78;;;;;;;;;;5002371;28;20069;-75
2023/07/24 06:25:03;;;;;;;9.48;5.68;;;;;;;;;;5006752;28;20145;-72
2023/07/24 06:27:29;;;;;;;8.10;5.25;;;;;;;;;;5002365;28;20034;-74
2023/07/24 06:29:54;;;;;;;8.45;4.80;;;;;;;;;;5004648;28;20034;-74
2023/07/24 06:32:20;;;;;;;8.15;5.13;;;;;;;;;;5004429;28;20033;-76
2023/07/24 06:34:45;;;;;;;8.30;5.40;;;;;;;;;;5005566;28;20128;-77
2023/07/24 06:37:10;;;;;;;8.32;4.80;;;;;;;;;;5002626;28;20053;-73
2023/07/24 06:39:36;;;;;;;10.95;5.38;;;;;;;;;;5012908;28;20041;-73
2023/07/24 06:42:01;;;;;;;10.15;5.05;;;;;;;;;;5003643;28;20077;-72
2023/07/24 06:44:27;;;;;;;7.80;5.15;;;;;;;;;;5002899;28;20438;-74
2023/07/24 06:46:52;;;;;;;7.90;4.93;;;;;;;;;;5005712;28;20045;-75
2023/07/24 06:49:18;;;;;;;5.70;4.20;;;;;;;;;;5007432;28;20447;-73
2023/07/24 06:51:43;;;;;;;8.73;5.28;;;;;;;;;;5004986;28;20115;-74
2023/07/24 06:54:08;;;;;;;9.85;5.50;;;;;;;;;;5006067;28;20132;-77
2023/07/24 06:56:34;;;;;;;7.85;5.43;;;;;;;;;;5006423;28;20527;-74
2023/07/24 06:58:59;;;;;;;9.23;5.65;;;;;;;;;;5009494;28;20136;-75
2023/07/24 07:01:25;;;;;;;7.78;4.97;;;;;;;;;;5002258;28;20176;-75
2023/07/24 07:03:50;;;;;;;8.32;5.32;;;;;;;;;;5000470;28;20615;-73
2023/07/24 07:06:16;;;;;;;10.65;5.43;;;;;;;;;;5003419;28;20050;-73
2023/07/24 07:08:41;;;;;;;12.07;5.38;;;;;;;;;;5010442;28;20053;-76
2023/07/24 07:11:07;;;;;;;10.50;5.72;;;;;;;;;;5012803;28;20051;-74
2023/07/24 07:13:33;;;;;;;15.40;5.90;;;;;;;;;;5006166;28;20524;-73
2023/07/24 07:15:58;;;;;;;8.57;4.93;;;;;;;;;;5001222;28;20738;-74
2023/07/24 07:18:23;;;;;;;9.45;5.68;;;;;;;;;;5001182;28;20046;-74
2023/07/24 07:20:52;;;;;;;11.35;6.15;;;;;;;;;;5008855;28;20037;-76
2023/07/24 07:23:18;;;;;;;7.47;5.32;;;;;;;;;;5005243;28;20045;-76
2023/07/24 07:25:47;;;;;;;8.75;5.65;;;;;;;;;;5012863;28;20056;-75
2023/07/24 07:28:14;;;;;;;9.25;5.93;;;;;;;;;;5003367;28;20053;-74
2023/07/24 07:30:40;;;;;;;7.88;5.53;;;;;;;;;;5001173;28;20052;-75
2023/07/24 07:33:05;;;;;;;9.13;6.07;;;;;;;;;;5007446;28;20054;-74
2023/07/24 07:35:32;;;;;;;8.10;5.30;;;;;;;;;;5001491;28;20046;-74
2023/07/24 07:37:57;;;;;;;9.82;5.38;;;;;;;;;;4999509;28;20050;-72
2023/07/24 07:40:23;;;;;;;7.50;5.32;;;;;;;;;;5001967;28;20095;-73
2023/07/24 07:42:49;;;;;;;11.00;5.72;;;;;;;;;;4999721;28;20084;-72
2023/07/24 07:45:14;;;;;;;8.35;5.63;;;;;;;;;;5001949;28;20046;-73
2023/07/24 07:47:40;;;;;;;8.02;5.28;;;;;;;;;;5001423;28;20049;-72
2023/07/24 07:50:06;;;;;;;8.57;5.63;;;;;;;;;;4999665;28;20050;-73
2023/07/24 07:52:31;;;;;;;9.30;5.95;;;;;;;;;;5001582;28;20084;-74
2023/07/24 07:54:56;;;;;;;9.95;6.00;;;;;;;;;;5003610;28;20053;-72
2023/07/24 07:57:22;;;;;;;9.35;5.90;;;;;;;;;;5003653;28;20053;-72
2023/07/24 07:59:47;;;;;;;10.45;5.93;;;;;;;;;;5006820;28;20045;-73
2023/07/24 08:02:13;;;;;;;8.27;5.45;;;;;;;;;;5008169;28;20042;-73
2023/07/24 08:04:38;;;;;;;11.40;5.47;;;;;;;;;;5004640;28;21057;-73
2023/07/24 08:07:04;;;;;;;9.45;5.13;;;;;;;;;;5001065;28;20061;-73
2023/07/24 08:09:29;;;;;;;8.23;5.40;;;;;;;;;;5008525;28;20049;-73
2023/07/24 08:11:55;;;;;;;9.73;5.35;;;;;;;;;;5008506;28;20108;-73
2023/07/24 08:14:20;;;;;;;8.15;4.95;;;;;;;;;;5005240;28;20066;-74
2023/07/24 08:16:49;;;;;;;9.02;5.43;;;;;;;;;;5003857;28;20410;-75
2023/07/24 08:19:15;;;;;;;11.10;5.88;;;;;;;;;;5006494;28;20569;-74
2023/07/24 08:21:40;;;;;;;8.63;5.40;;;;;;;;;;5004235;28;20045;-74
2023/07/24 08:24:06;;;;;;;7.28;5.28;;;;;;;;;;4999380;28;20057;-75
2023/07/24 08:26:31;;;;;;;10.60;5.20;;;;;;;;;;5006634;28;20145;-74
2023/07/24 08:28:57;;;;;;;11.43;5.13;;;;;;;;;;5008986;28;20088;-74
2023/07/24 08:31:22;;;;;;;13.63;5.60;;;;;;;;;;5011060;28;20490;-78
2023/07/24 08:33:48;;;;;;;8.35;4.65;;;;;;;;;;5015753;28;20053;-74
2023/07/24 08:36:13;;;;;;;8.77;5.18;;;;;;;;;;5007911;28;20160;-75
2023/07/24 08:38:40;;;;;;;9.50;5.43;;;;;;;;;;5012356;28;20054;-74
2023/07/24 08:41:10;;;;;;;8.48;4.85;;;;;;;;;;5006629;28;20095;-74
2023/07/24 08:43:37;;;;;;;8.30;4.55;;;;;;;;;;5004466;28;20041;-73
2023/07/24 08:46:04;;;;;;;9.35;4.60;;;;;;;;;;4991943;28;20049;-73
2023/07/24 08:48:33;;;;;;;8.80;4.93;;;;;;;;;;5009677;28;20410;-73
2023/07/24 08:51:00;;;;;;;9.32;4.72;;;;;;;;;;5008941;28;20150;-73
2023/07/24 08:53:25;;;;;;;8.02;4.85;;;;;;;;;;5006922;28;20048;-73
2023/07/24 08:55:52;;;;;;;8.82;4.80;;;;;;;;;;5003608;28;20046;-75
2023/07/24 08:58:17;;;;;;;8.07;4.88;;;;;;;;;;5003977;28;20045;-73
2023/07/24 09:00:43;;;;;;;8.10;4.85;;;;;;;;;;5011948;28;20064;-73
2023/07/24 09:03:09;;;;;;;10.40;5.38;;;;;;;;;;5007983;28;20415;-73
2023/07/24 09:05:34;;;;;;;12.63;5.35;;;;;;;;;;5016702;28;20037;-74
2023/07/24 09:08:00;;;;;;;6.72;4.72;;;;;;;;;;4998892;28;20042;-74
2023/07/24 09:10:26;;;;;;;7.95;4.78;;;;;;;;;;5002641;28;20084;-75
2023/07/24 09:12:52;;;;;;;8.73;5.05;;;;;;;;;;5003069;28;20078;-72
2023/07/24 09:15:18;;;;;;;9.13;5.03;;;;;;;;;;5008797;28;20077;-73
2023/07/24 09:17:53;;;;;;;9.07;4.65;;;;;;;;;;5001773;28;20042;-73
2023/07/24 09:20:19;;;;;;;8.43;4.63;;;;;;;;;;4997186;28;20057;-76
2023/07/24 09:22:52;;;;;;;6.75;4.35;;;;;;;;;;4998405;28;20056;-74
2023/07/24 09:25:18;;;;;;;11.60;4.32;;;;;;;;;;5000129;28;20045;-75
2023/07/24 09:27:44;;;;;;;9.30;4.72;;;;;;;;;;5005072;28;20037;-73
2023/07/24 09:30:14;;;;;;;9.30;4.72;;;;;;;;;;4999574;28;20117;-75
2023/07/24 09:32:40;;;;;;;9.07;4.43;;;;;;;;;;5019154;28;20049;-76
2023/07/24 09:35:16;;;;;;;6.75;4.20;;;;;;;;;;5002122;28;20049;-75
2023/07/24 09:37:42;;;;;;;9.70;4.97;;;;;;;;;;5012611;28;20073;-74
2023/07/24 09:40:10;;;;;;;8.35;4.68;;;;;;;;;;5010393;28;20637;-75
2023/07/24 09:42:37;;;;;;;5.72;4.75;;;;;;;;;;5005169;28;20064;-75
2023/07/24 09:45:03;;;;;;;8.52;5.22;;;;;;;;;;5010728;28;20061;-75
2023/07/24 09:47:30;;;;;;;8.63;5.07;;;;;;;;;;5006835;28;20050;-74
2023/07/24 09:49:55;;;;;;;7.75;4.72;;;;;;;;;;4998126;28;20077;-74
2023/07/24 09:52:21;;;;;;;8.98;5.43;;;;;;;;;;4981274;28;20077;-77
2023/07/24 09:55:12;;;;;;;6.93;4.70;;;;;;;;;;5004793;28;20042;-77
2023/07/24 09:57:37;;;;;;;7.95;4.97;;;;;;;;;;4980239;28;20045;-73
2023/07/24 10:00:04;;;;;;;6.93;4.50;;;;;;;;;;5002015;28;20082;-74
2023/07/24 10:02:30;;;;;;;7.50;4.63;;;;;;;;;;5005588;28;20168;-75
2023/07/24 10:04:56;;;;;;;6.75;5.00;;;;;;;;;;5006417;28;20144;-76
2023/07/24 10:07:23;;;;;;;6.75;4.72;;;;;;;;;;5008950;28;20037;-75
2023/07/24 10:09:50;;;;;;;7.70;4.60;;;;;;;;;;5001190;28;20528;-78
2023/07/24 10:12:20;;;;;;;8.35;4.72;;;;;;;;;;5002156;28;20406;-74
2023/07/24 10:14:46;;;;;;;8.35;5.03;;;;;;;;;;5001970;28;20076;-74
2023/07/24 10:17:12;;;;;;;5.97;4.07;;;;;;;;;;5001632;28;20150;-74
2023/07/24 10:19:44;;;;;;;7.63;4.50;;;;;;;;;;5003682;28;20429;-73
2023/07/24 10:22:20;;;;;;;6.90;4.60;;;;;;;;;;5002346;28;20128;-73
2023/07/24 10:24:47;;;;;;;8.02;4.50;;;;;;;;;;5018455;28;20045;-73
2023/07/24 10:27:12;;;;;;;6.07;3.80;;;;;;;;;;5006712;28;20046;-74
2023/07/24 10:29:38;;;;;;;5.45;4.00;;;;;;;;;;5002607;28;20104;-72
2023/07/24 10:32:16;;;;;;;5.95;4.28;;;;;;;;;;5007371;28;20595;-72
2023/07/24 10:34:42;;;;;;;4.18;3.20;;;;;;;;;;5005562;28;20061;-74
2023/07/24 10:37:11;;;;;;;6.55;4.20;;;;;;;;;;4993343;28;20129;-73
2023/07/24 10:39:40;;;;;;;6.35;4.28;;;;;;;;;;5002383;28;20076;-74
2023/07/24 10:42:08;;;;;;;5.00;3.10;;;;;;;;;;5001723;28;20046;-73
2023/07/24 10:44:33;;;;;;;6.15;3.53;;;;;;;;;;5002226;28;20077;-74
2023/07/24 10:46:59;;;;;;;7.13;3.55;;;;;;;;;;5001350;28;20077;-75
2023/07/24 10:49:24;;;;;;;7.50;3.67;;;;;;;;;;5007504;28;20100;-74
2023/07/24 10:51:58;;;;;;;6.82;3.65;;;;;;;;;;5011591;28;20049;-74
2023/07/24 10:54:24;;;;;;;6.43;3.70;;;;;;;;;;5002295;28;20514;-73
2023/07/24 10:56:49;;;;;;;4.35;3.40;;;;;;;;;;5001311;28;20053;-73
2023/07/24 10:59:15;;;;;;;5.45;3.60;;;;;;;;;;5000091;28;20096;-74
2023/07/24 11:01:41;;;;;;;5.05;3.80;;;;;;;;;;5006023;28;20041;-75
2023/07/24 11:04:06;;;;;;;4.63;3.33;;;;;;;;;;5002753;28;20061;-74
2023/07/24 11:06:32;;;;;;;4.45;3.30;;;;;;;;;;5013223;28;20072;-75
2023/07/24 11:08:59;;;;;;;5.68;3.47;;;;;;;;;;5012813;28;20115;-74
2023/07/24 11:11:32;;;;;;;4.35;3.38;;;;;;;;;;5002867;28;20074;-75
2023/07/24 11:13:58;;;;;;;6.30;3.75;;;;;;;;;;5001102;28;20687;-75
2023/07/24 11:16:24;;;;;;;4.95;3.60;;;;;;;;;;5007797;28;21080;-75
2023/07/24 11:18:54;;;;;;;7.10;3.63;;;;;;;;;;5000519;28;20057;-75
2023/07/24 11:21:20;;;;;;;6.18;4.00;;;;;;;;;;5006289;28;20389;-76
2023/07/24 11:23:50;;;;;;;5.75;3.78;;;;;;;;;;5001005;28;20045;-75
2023/07/24 11:26:20;;;;;;;5.47;3.45;;;;;;;;;;5001665;28;20042;-72
2023/07/24 11:28:45;;;;;;;4.47;3.45;;;;;;;;;;5002175;28;20073;-74
2023/07/24 11:31:11;;;;;;;3.90;2.97;;;;;;;;;;5002574;28;20160;-73
2023/07/24 11:33:39;;;;;;;4.15;2.90;;;;;;;;;;5003299;28;20053;-72
2023/07/24 11:36:05;;;;;;;5.22;3.40;;;;;;;;;;5004628;28;20053;-74
2023/07/24 11:38:30;;;;;;;5.35;3.90;;;;;;;;;;5008498;28;20464;-76
2023/07/24 11:40:56;;;;;;;5.50;3.63;;;;;;;;;;5008002;28;20132;-73
2023/07/24 11:43:23;;;;;;;4.05;3.42;;;;;;;;;;5010387;28;20069;-75
2023/07/24 11:45:53;;;;;;;4.15;3.33;;;;;;;;;;5004949;28;20736;-75
2023/07/24 11:48:19;;;;;;;8.50;3.95;;;;;;;;;;5009971;28;20052;-72
2023/07/24 11:50:46;;;;;;;4.70;3.53;;;;;;;;;;5010620;28;20061;-74
2023/07/24 11:53:23;;;;;;;4.03;3.58;;;;;;;;;;5000796;28;20042;-74
2023/07/24 11:55:51;;;;;;;4.95;4.00;;;;;;;;;;5008422;28;20057;-72
2023/07/24 11:58:17;;;;;;;4.53;3.80;;;;;;;;;;4984038;28;20041;-73
2023/07/24 12:00:43;;;;;;;4.97;3.70;;;;;;;;;;5005378;28;20037;-71
2023/07/24 12:03:09;;;;;;;5.32;3.67;;;;;;;;;;5005906;28;20047;-73
2023/07/24 12:05:42;;;;;;;5.78;3.58;;;;;;;;;;5006746;28;20041;-72
2023/07/24 12:08:08;;;;;;;5.28;3.90;;;;;;;;;;5001548;28;20513;-72
2023/07/24 12:10:37;;;;;;;5.32;3.70;;;;;;;;;;5006473;28;20144;-74
2023/07/24 12:13:02;;;;;;;6.15;4.18;;;;;;;;;;5003653;28;20064;-75
2023/07/24 12:15:28;;;;;;;4.97;3.60;;;;;;;;;;5009124;28;22027;-72
2023/07/24 12:17:54;;;;;;;6.45;3.58;;;;;;;;;;5009951;28;20129;-75
2023/07/24 12:20:20;;;;;;;5.57;3.28;;;;;;;;;;5010034;28;20084;-79
2023/07/24 12:22:47;;;;;;;5.68;3.38;;;;;;;;;;5011505;28;20045;-70
2023/07/24 12:25:12;;;;;;;6.35;3.42;;;;;;;;;;5015548;28;20401;-75
2023/07/24 12:27:41;;;;;;;3.92;3.20;;;;;;;;;;5004004;28;20045;-75
2023/07/24 12:30:07;;;;;;;5.53;3.92;;;;;;;;;;5003432;28;20140;-74
2023/07/24 12:32:33;;;;;;;5.47;3.42;;;;;;;;;;5005426;28;20046;-72
2023/07/24 12:34:59;;;;;;;5.20;3.80;;;;;;;;;;4981848;28;20084;-74
2023/07/24 12:37:25;;;;;;;4.00;3.35;;;;;;;;;;4998268;28;20109;-74
2023/07/24 12:39:52;;;;;;;4.53;3.20;;;;;;;;;;5021203;28;20436;-72
2023/07/24 12:42:17;;;;;;;4.07;3.10;;;;;;;;;;5003300;28;20115;-76
2023/07/24 12:44:43;;;;;;;5.07;3.63;;;;;;;;;;5001227;28;20046;-74
2023/07/24 12:47:10;;;;;;;4.32;3.40;;;;;;;;;;5009684;28;20406;-75
2023/07/24 12:49:36;;;;;;;5.72;3.95;;;;;;;;;;5002068;28;20103;-75
2023/07/24 12:52:02;;;;;;;5.07;3.58;;;;;;;;;;5005373;28;20426;-78
2023/07/24 12:54:28;;;;;;;6.13;3.63;;;;;;;;;;5009171;28;20042;-75
2023/07/24 12:56:53;;;;;;;7.80;3.80;;;;;;;;;;5014560;28;20499;-75
2023/07/24 12:59:19;;;;;;;7.13;3.47;;;;;;;;;;4998979;28;20088;-75
2023/07/24 13:01:45;;;;;;;7.35;4.03;;;;;;;;;;5006013;28;20052;-72
2023/07/24 13:04:11;;;;;;;5.22;3.50;;;;;;;;;;5003847;28;20047;-73
2023/07/24 13:06:36;;;;;;;4.05;2.80;;;;;;;;;;5001583;28;20117;-72
2023/07/24 13:09:02;;;;;;;7.80;3.45;;;;;;;;;;5006051;28;20744;-75
2023/07/24 13:11:28;;;;;;;7.25;3.25;;;;;;;;;;4996076;28;20053;-77
2023/07/24 13:13:54;;;;;;;7.72;4.00;;;;;;;;;;4999859;28;20046;-75
2023/07/24 13:16:20;;;;;;;9.40;4.20;;;;;;;;;;4999893;28;20053;-74
2023/07/24 13:18:45;;;;;;;10.07;4.32;;;;;;;;;;4997684;28;20037;-76
2023/07/24 13:21:11;;;;;;;6.03;4.00;;;;;;;;;;4997308;28;20591;-73
2023/07/24 13:23:37;;;;;;;12.05;4.20;;;;;;;;;;5005226;28;20045;-74
2023/07/24 13:26:02;;;;;;;5.45;3.60;;;;;;;;;;5002681;28;20037;-75
2023/07/24 13:28:27;;;;;;;6.03;4.13;;;;;;;;;;4996986;28;20129;-76
2023/07/24 13:30:53;;;;;;;6.07;4.20;;;;;;;;;;4998577;28;20046;-74
2023/07/24 13:33:19;;;;;;;7.18;3.85;;;;;;;;;;5005397;28;20041;-76
2023/07/24 13:35:44;;;;;;;8.75;4.97;;;;;;;;;;5005730;28;20061;-77
2023/07/24 13:38:10;;;;;;;12.40;7.30;;;;;;;;;;5003441;28;20049;-73
2023/07/24 13:40:36;;;;;;;11.52;7.88;;;;;;;;;;5005632;28;20054;-75
2023/07/24 13:43:02;;;;;;;12.13;7.00;;;;;;;;;;5008875;28;20081;-76
2023/07/24 13:45:28;;;;;;;9.88;7.07;;;;;;;;;;5010134;28;20084;-76
2023/07/24 13:47:54;;;;;;;7.22;5.55;;;;;;;;;;5013687;28;20081;-75
2023/07/24 13:50:20;;;;;;;15.88;8.48;;;;;;;;;;5014689;28;20045;-75
2023/07/24 13:52:45;;;;;;;5.60;4.20;;;;;;;;;;5010850;28;20934;-75
2023/07/24 13:55:11;;;;;;;12.43;9.25;;;;;;;;;;5007830;28;20054;-73
2023/07/24 13:57:36;;;;;;;6.63;4.05;;;;;;;;;;5006003;28;20053;-72
2023/07/24 14:00:02;;;;;;;8.85;5.80;;;;;;;;;;4997348;28;20487;-75
2023/07/24 14:02:37;;;;;;;18.25;11.65;;;;;;;;;;5010489;28;20073;-74
2023/07/24 14:05:03;;;;;;;5.40;3.65;;;;;;;;;;5012212;28;20076;-76
2023/07/24 14:07:28;;;;;;;8.75;4.43;;;;;;;;;;5012982;28;20519;-77
2023/07/24 14:09:54;;;;;;;6.32;3.45;;;;;;;;;;5011075;28;20046;-76
2023/07/24 14:12:19;;;;;;;7.53;3.85;;;;;;;;;;5005536;28;20100;-75
2023/07/24 14:14:45;;;;;;;4.50;3.53;;;;;;;;;;5004641;28;20132;-73
2023/07/24 14:17:10;;;;;;;6.00;3.42;;;;;;;;;;5009466;28;20091;-75
2023/07/24 14:19:36;;;;;;;8.32;2.85;;;;;;;;;;5001175;28;20068;-74
2023/07/24 14:22:01;;;;;;;3.80;2.47;;;;;;;;;;5010581;28;20056;-75
2023/07/24 14:24:27;;;;;;;3.72;3.00;;;;;;;;;;5001990;28;20077;-76
2023/07/24 14:26:52;;;;;;;6.50;2.78;;;;;;;;;;5007888;28;20075;-75
2023/07/24 14:29:18;;;;;;;3.08;2.70;;;;;;;;;;5002723;28;20049;-73
2023/07/24 14:31:44;;;;;;;4.60;2.90;;;;;;;;;;5011894;28;20038;-72
2023/07/24 14:34:11;;;;;;;10.10;4.53;;;;;;;;;;5008264;28;20057;-72
2023/07/24 14:36:37;;;;;;;6.13;3.05;;;;;;;;;;5007889;28;20037;-72